sensor_id;sensor_type;location;lat;lon;timestamp;P1;durP1;ratioP1;P2;durP2;ratioP2
68353;SDS011;55274;43.060;25.618;2024-03-06T00:01:47;35.97;;;11.45;;
68353;SDS011;55274;43.060;25.618;2024-03-06T00:04:13;31.20;;;11.02;;
68353;SDS011;55274;43.060;25.618;2024-03-06T00:06:38;28.20;;;11.63;;
68353;SDS011;55274;43.060;25.618;2024-03-06T00:09:04;31.38;;;10.95;;
68353;SDS011;55274;43.060;25.618;2024-03-06T00:11:30;30.13;;;11.93;;
68353;SDS011;55274;43.060;25.618;2024-03-06T00:13:56;29.85;;;12.18;;
68353;SDS011;55274;43.060;25.618;2024-03-06T00:16:21;33.65;;;12.30;;
68353;SDS011;55274;43.060;25.618;2024-03-06T00:18:47;31.23;;;12.00;;
68353;SDS011;55274;43.060;25.618;2024-03-06T00:21:13;36.35;;;13.70;;
68353;SDS011;55274;43.060;25.618;2024-03-06T00:23:39;34.00;;;12.63;;
68353;SDS011;55274;43.060;25.618;2024-03-06T00:26:04;40.45;;;13.27;;
68353;SDS011;55274;43.060;25.618;2024-03-06T00:28:30;39.92;;;14.93;;
68353;SDS011;55274;43.060;25.618;2024-03-06T00:30:56;37.70;;;13.73;;
68353;SDS011;55274;43.060;25.618;2024-03-06T00:33:22;33.10;;;13.05;;
68353;SDS011;55274;43.060;25.618;2024-03-06T00:35:48;44.75;;;18.05;;
68353;SDS011;55274;43.060;25.618;2024-03-06T00:38:14;36.00;;;14.38;;
68353;SDS011;55274;43.060;25.618;2024-03-06T00:40:39;38.35;;;14.70;;
68353;SDS011;55274;43.060;25.618;2024-03-06T00:43:05;39.25;;;14.05;;
68353;SDS011;55274;43.060;25.618;2024-03-06T00:45:31;38.45;;;14.55;;
68353;SDS011;55274;43.060;25.618;2024-03-06T00:47:57;38.60;;;14.70;;
68353;SDS011;55274;43.060;25.618;2024-03-06T00:50:23;35.47;;;14.57;;
68353;SDS011;55274;43.060;25.618;2024-03-06T00:52:49;38.83;;;13.70;;
68353;SDS011;55274;43.060;25.618;2024-03-06T00:55:15;33.63;;;13.95;;
68353;SDS011;55274;43.060;25.618;2024-03-06T00:57:41;39.67;;;14.88;;
68353;SDS011;55274;43.060;25.618;2024-03-06T01:00:07;36.67;;;15.00;;
68353;SDS011;55274;43.060;25.618;2024-03-06T01:02:39;38.25;;;17.27;;
68353;SDS011;55274;43.060;25.618;2024-03-06T01:05:05;41.75;;;18.50;;
68353;SDS011;55274;43.060;25.618;2024-03-06T01:07:34;43.90;;;17.85;;
68353;SDS011;55274;43.060;25.618;2024-03-06T01:10:03;43.20;;;16.00;;
68353;SDS011;55274;43.060;25.618;2024-03-06T01:12:32;35.45;;;14.07;;
68353;SDS011;55274;43.060;25.618;2024-03-06T01:14:58;41.70;;;14.20;;
68353;SDS011;55274;43.060;25.618;2024-03-06T01:17:23;36.42;;;14.40;;
68353;SDS011;55274;43.060;25.618;2024-03-06T01:19:50;34.63;;;14.13;;
68353;SDS011;55274;43.060;25.618;2024-03-06T01:22:16;36.45;;;13.90;;
68353;SDS011;55274;43.060;25.618;2024-03-06T01:24:43;38.75;;;14.80;;
68353;SDS011;55274;43.060;25.618;2024-03-06T01:27:09;36.85;;;13.88;;
68353;SDS011;55274;43.060;25.618;2024-03-06T01:29:35;37.42;;;13.57;;
68353;SDS011;55274;43.060;25.618;2024-03-06T01:32:00;34.47;;;13.65;;
68353;SDS011;55274;43.060;25.618;2024-03-06T01:34:27;40.47;;;15.93;;
68353;SDS011;55274;43.060;25.618;2024-03-06T01:36:53;38.13;;;13.65;;
68353;SDS011;55274;43.060;25.618;2024-03-06T01:39:18;35.20;;;13.07;;
68353;SDS011;55274;43.060;25.618;2024-03-06T01:41:48;32.67;;;13.52;;
68353;SDS011;55274;43.060;25.618;2024-03-06T01:44:15;39.83;;;13.65;;
68353;SDS011;55274;43.060;25.618;2024-03-06T01:46:42;35.90;;;13.75;;
68353;SDS011;55274;43.060;25.618;2024-03-06T01:49:09;39.17;;;13.75;;
68353;SDS011;55274;43.060;25.618;2024-03-06T01:51:38;37.53;;;14.63;;
68353;SDS011;55274;43.060;25.618;2024-03-06T01:54:05;40.83;;;14.27;;
68353;SDS011;55274;43.060;25.618;2024-03-06T01:56:32;34.92;;;14.70;;
68353;SDS011;55274;43.060;25.618;2024-03-06T01:59:00;40.33;;;14.65;;
68353;SDS011;55274;43.060;25.618;2024-03-06T02:01:27;38.13;;;14.88;;
68353;SDS011;55274;43.060;25.618;2024-03-06T02:03:54;39.15;;;14.65;;
68353;SDS011;55274;43.060;25.618;2024-03-06T02:06:21;40.50;;;14.85;;
68353;SDS011;55274;43.060;25.618;2024-03-06T02:08:47;45.85;;;17.33;;
68353;SDS011;55274;43.060;25.618;2024-03-06T02:11:13;40.25;;;15.00;;
68353;SDS011;55274;43.060;25.618;2024-03-06T02:13:40;40.53;;;15.68;;
68353;SDS011;55274;43.060;25.618;2024-03-06T02:16:06;35.22;;;14.50;;
68353;SDS011;55274;43.060;25.618;2024-03-06T02:18:32;40.17;;;17.60;;
68353;SDS011;55274;43.060;25.618;2024-03-06T02:20:58;44.92;;;17.50;;
68353;SDS011;55274;43.060;25.618;2024-03-06T02:23:24;43.30;;;17.98;;
68353;SDS011;55274;43.060;25.618;2024-03-06T02:25:50;39.67;;;16.83;;
68353;SDS011;55274;43.060;25.618;2024-03-06T02:28:16;36.47;;;15.75;;
68353;SDS011;55274;43.060;25.618;2024-03-06T02:30:43;39.88;;;17.38;;
68353;SDS011;55274;43.060;25.618;2024-03-06T02:33:09;46.58;;;19.90;;
68353;SDS011;55274;43.060;25.618;2024-03-06T02:35:35;44.05;;;18.48;;
68353;SDS011;55274;43.060;25.618;2024-03-06T02:38:01;44.75;;;18.65;;
68353;SDS011;55274;43.060;25.618;2024-03-06T02:40:32;44.88;;;18.92;;
68353;SDS011;55274;43.060;25.618;2024-03-06T02:42:58;40.83;;;15.75;;
68353;SDS011;55274;43.060;25.618;2024-03-06T02:45:24;35.90;;;15.25;;
68353;SDS011;55274;43.060;25.618;2024-03-06T02:47:50;35.72;;;14.25;;
68353;SDS011;55274;43.060;25.618;2024-03-06T02:50:15;33.42;;;14.07;;
68353;SDS011;55274;43.060;25.618;2024-03-06T02:52:41;31.75;;;13.45;;
68353;SDS011;55274;43.060;25.618;2024-03-06T02:55:07;31.80;;;13.52;;
68353;SDS011;55274;43.060;25.618;2024-03-06T02:57:33;31.77;;;12.57;;
68353;SDS011;55274;43.060;25.618;2024-03-06T02:59:59;30.52;;;12.32;;
68353;SDS011;55274;43.060;25.618;2024-03-06T03:02:25;30.40;;;12.88;;
68353;SDS011;55274;43.060;25.618;2024-03-06T03:04:51;30.10;;;12.52;;
68353;SDS011;55274;43.060;25.618;2024-03-06T03:07:17;27.85;;;12.27;;
68353;SDS011;55274;43.060;25.618;2024-03-06T03:09:44;31.08;;;12.15;;
68353;SDS011;55274;43.060;25.618;2024-03-06T03:12:11;26.30;;;11.20;;
68353;SDS011;55274;43.060;25.618;2024-03-06T03:14:37;27.60;;;11.52;;
68353;SDS011;55274;43.060;25.618;2024-03-06T03:17:04;27.50;;;11.60;;
68353;SDS011;55274;43.060;25.618;2024-03-06T03:19:33;29.02;;;11.45;;
68353;SDS011;55274;43.060;25.618;2024-03-06T03:21:59;33.85;;;12.40;;
68353;SDS011;55274;43.060;25.618;2024-03-06T03:24:25;30.88;;;12.25;;
68353;SDS011;55274;43.060;25.618;2024-03-06T03:26:52;26.73;;;12.02;;
68353;SDS011;55274;43.060;25.618;2024-03-06T03:29:18;26.77;;;10.90;;
68353;SDS011;55274;43.060;25.618;2024-03-06T03:31:44;28.52;;;11.75;;
68353;SDS011;55274;43.060;25.618;2024-03-06T03:34:09;30.05;;;10.93;;
68353;SDS011;55274;43.060;25.618;2024-03-06T03:36:41;34.35;;;11.00;;
68353;SDS011;55274;43.060;25.618;2024-03-06T03:39:09;28.10;;;10.52;;
68353;SDS011;55274;43.060;25.618;2024-03-06T03:41:47;25.98;;;10.82;;
68353;SDS011;55274;43.060;25.618;2024-03-06T03:44:16;29.10;;;11.70;;
68353;SDS011;55274;43.060;25.618;2024-03-06T03:46:44;28.30;;;11.43;;
68353;SDS011;55274;43.060;25.618;2024-03-06T03:49:10;30.30;;;11.50;;
68353;SDS011;55274;43.060;25.618;2024-03-06T03:51:39;25.98;;;11.15;;
68353;SDS011;55274;43.060;25.618;2024-03-06T03:54:05;28.13;;;11.60;;
68353;SDS011;55274;43.060;25.618;2024-03-06T03:56:32;28.30;;;11.90;;
68353;SDS011;55274;43.060;25.618;2024-03-06T03:58:58;29.98;;;12.15;;
68353;SDS011;55274;43.060;25.618;2024-03-06T04:01:27;29.10;;;12.98;;
68353;SDS011;55274;43.060;25.618;2024-03-06T04:03:53;32.15;;;13.63;;
68353;SDS011;55274;43.060;25.618;2024-03-06T04:06:18;30.20;;;14.95;;
68353;SDS011;55274;43.060;25.618;2024-03-06T04:08:44;33.72;;;13.70;;
68353;SDS011;55274;43.060;25.618;2024-03-06T04:11:10;32.03;;;13.02;;
68353;SDS011;55274;43.060;25.618;2024-03-06T04:13:36;34.53;;;13.38;;
68353;SDS011;55274;43.060;25.618;2024-03-06T04:16:03;32.88;;;12.80;;
68353;SDS011;55274;43.060;25.618;2024-03-06T04:18:30;37.97;;;14.30;;
68353;SDS011;55274;43.060;25.618;2024-03-06T04:21:06;32.95;;;14.35;;
68353;SDS011;55274;43.060;25.618;2024-03-06T04:23:32;29.05;;;13.35;;
68353;SDS011;55274;43.060;25.618;2024-03-06T04:25:59;31.80;;;14.18;;
68353;SDS011;55274;43.060;25.618;2024-03-06T04:28:25;37.78;;;14.02;;
68353;SDS011;55274;43.060;25.618;2024-03-06T04:30:51;31.67;;;12.60;;
68353;SDS011;55274;43.060;25.618;2024-03-06T04:33:17;34.70;;;14.05;;
68353;SDS011;55274;43.060;25.618;2024-03-06T04:35:42;32.78;;;13.73;;
68353;SDS011;55274;43.060;25.618;2024-03-06T04:38:08;33.63;;;13.38;;
68353;SDS011;55274;43.060;25.618;2024-03-06T04:40:34;33.80;;;13.40;;
68353;SDS011;55274;43.060;25.618;2024-03-06T04:43:00;30.15;;;11.98;;
68353;SDS011;55274;43.060;25.618;2024-03-06T04:45:26;36.35;;;13.05;;
68353;SDS011;55274;43.060;25.618;2024-03-06T04:47:54;30.52;;;12.07;;
68353;SDS011;55274;43.060;25.618;2024-03-06T04:50:20;33.65;;;13.00;;
68353;SDS011;55274;43.060;25.618;2024-03-06T04:52:46;36.97;;;13.43;;
68353;SDS011;55274;43.060;25.618;2024-03-06T04:55:12;32.03;;;12.88;;
68353;SDS011;55274;43.060;25.618;2024-03-06T04:57:42;35.35;;;13.27;;
68353;SDS011;55274;43.060;25.618;2024-03-06T05:00:09;35.63;;;13.68;;
68353;SDS011;55274;43.060;25.618;2024-03-06T05:02:36;32.65;;;12.77;;
68353;SDS011;55274;43.060;25.618;2024-03-06T05:05:03;31.13;;;13.02;;
68353;SDS011;55274;43.060;25.618;2024-03-06T05:07:30;33.40;;;12.85;;
68353;SDS011;55274;43.060;25.618;2024-03-06T05:09:56;33.20;;;13.48;;
68353;SDS011;55274;43.060;25.618;2024-03-06T05:12:24;36.20;;;14.35;;
68353;SDS011;55274;43.060;25.618;2024-03-06T05:14:50;34.47;;;14.30;;
68353;SDS011;55274;43.060;25.618;2024-03-06T05:17:17;43.25;;;15.00;;
68353;SDS011;55274;43.060;25.618;2024-03-06T05:19:43;46.30;;;18.17;;
68353;SDS011;55274;43.060;25.618;2024-03-06T05:22:14;40.22;;;16.75;;
68353;SDS011;55274;43.060;25.618;2024-03-06T05:24:41;41.55;;;17.08;;
68353;SDS011;55274;43.060;25.618;2024-03-06T05:27:10;41.35;;;16.05;;
68353;SDS011;55274;43.060;25.618;2024-03-06T05:29:42;38.35;;;14.85;;
68353;SDS011;55274;43.060;25.618;2024-03-06T05:32:08;38.70;;;15.85;;
68353;SDS011;55274;43.060;25.618;2024-03-06T05:34:34;36.85;;;14.95;;
68353;SDS011;55274;43.060;25.618;2024-03-06T05:37:00;38.05;;;15.50;;
68353;SDS011;55274;43.060;25.618;2024-03-06T05:39:26;36.60;;;15.73;;
68353;SDS011;55274;43.060;25.618;2024-03-06T05:41:55;34.08;;;15.23;;
68353;SDS011;55274;43.060;25.618;2024-03-06T05:44:25;36.53;;;15.07;;
68353;SDS011;55274;43.060;25.618;2024-03-06T05:46:51;38.05;;;14.85;;
68353;SDS011;55274;43.060;25.618;2024-03-06T05:49:17;37.45;;;15.20;;
68353;SDS011;55274;43.060;25.618;2024-03-06T05:51:43;33.67;;;14.30;;
68353;SDS011;55274;43.060;25.618;2024-03-06T05:54:10;37.28;;;15.05;;
68353;SDS011;55274;43.060;25.618;2024-03-06T05:56:36;38.70;;;14.15;;
68353;SDS011;55274;43.060;25.618;2024-03-06T05:59:04;39.03;;;15.15;;
68353;SDS011;55274;43.060;25.618;2024-03-06T06:01:33;34.78;;;14.75;;
68353;SDS011;55274;43.060;25.618;2024-03-06T06:04:00;36.05;;;14.32;;
68353;SDS011;55274;43.060;25.618;2024-03-06T06:06:26;34.28;;;15.05;;
68353;SDS011;55274;43.060;25.618;2024-03-06T06:08:53;33.33;;;14.18;;
68353;SDS011;55274;43.060;25.618;2024-03-06T06:11:19;34.80;;;14.45;;
68353;SDS011;55274;43.060;25.618;2024-03-06T06:13:45;38.78;;;14.43;;
68353;SDS011;55274;43.060;25.618;2024-03-06T06:16:12;35.88;;;14.55;;
68353;SDS011;55274;43.060;25.618;2024-03-06T06:18:40;35.13;;;14.52;;
68353;SDS011;55274;43.060;25.618;2024-03-06T06:21:07;35.55;;;15.13;;
68353;SDS011;55274;43.060;25.618;2024-03-06T06:23:33;46.53;;;14.52;;
68353;SDS011;55274;43.060;25.618;2024-03-06T06:26:00;44.40;;;15.15;;
68353;SDS011;55274;43.060;25.618;2024-03-06T06:28:26;35.10;;;14.00;;
68353;SDS011;55274;43.060;25.618;2024-03-06T06:30:51;40.30;;;14.15;;
68353;SDS011;55274;43.060;25.618;2024-03-06T06:33:18;35.55;;;14.13;;
68353;SDS011;55274;43.060;25.618;2024-03-06T06:35:44;37.33;;;13.35;;
68353;SDS011;55274;43.060;25.618;2024-03-06T06:38:10;31.88;;;13.20;;
68353;SDS011;55274;43.060;25.618;2024-03-06T06:40:36;31.75;;;13.55;;
68353;SDS011;55274;43.060;25.618;2024-03-06T06:43:02;29.98;;;12.38;;
68353;SDS011;55274;43.060;25.618;2024-03-06T06:45:27;37.70;;;14.32;;
68353;SDS011;55274;43.060;25.618;2024-03-06T06:47:53;29.95;;;13.27;;
68353;SDS011;55274;43.060;25.618;2024-03-06T06:50:19;42.38;;;14.10;;
68353;SDS011;55274;43.060;25.618;2024-03-06T06:52:48;33.53;;;14.32;;
68353;SDS011;55274;43.060;25.618;2024-03-06T06:55:14;32.20;;;14.07;;
68353;SDS011;55274;43.060;25.618;2024-03-06T06:57:39;38.17;;;15.10;;
68353;SDS011;55274;43.060;25.618;2024-03-06T07:00:06;31.90;;;13.73;;
68353;SDS011;55274;43.060;25.618;2024-03-06T07:02:38;31.15;;;13.07;;
68353;SDS011;55274;43.060;25.618;2024-03-06T07:05:07;33.53;;;13.95;;
68353;SDS011;55274;43.060;25.618;2024-03-06T07:07:34;36.03;;;13.90;;
68353;SDS011;55274;43.060;25.618;2024-03-06T07:10:01;35.05;;;15.50;;
68353;SDS011;55274;43.060;25.618;2024-03-06T07:12:27;40.00;;;15.95;;
68353;SDS011;55274;43.060;25.618;2024-03-06T07:14:53;37.08;;;14.18;;
68353;SDS011;55274;43.060;25.618;2024-03-06T07:17:19;40.58;;;15.10;;
68353;SDS011;55274;43.060;25.618;2024-03-06T07:19:45;34.40;;;13.75;;
68353;SDS011;55274;43.060;25.618;2024-03-06T07:22:10;32.90;;;13.93;;
68353;SDS011;55274;43.060;25.618;2024-03-06T07:24:36;39.13;;;15.55;;
68353;SDS011;55274;43.060;25.618;2024-03-06T07:27:02;35.30;;;15.32;;
68353;SDS011;55274;43.060;25.618;2024-03-06T07:29:28;39.50;;;15.45;;
68353;SDS011;55274;43.060;25.618;2024-03-06T07:31:54;35.20;;;13.70;;
68353;SDS011;55274;43.060;25.618;2024-03-06T07:34:20;33.20;;;14.13;;
68353;SDS011;55274;43.060;25.618;2024-03-06T07:36:49;33.67;;;13.75;;
68353;SDS011;55274;43.060;25.618;2024-03-06T07:39:15;32.25;;;13.38;;
68353;SDS011;55274;43.060;25.618;2024-03-06T07:41:47;32.35;;;12.98;;
68353;SDS011;55274;43.060;25.618;2024-03-06T07:44:13;31.88;;;13.43;;
68353;SDS011;55274;43.060;25.618;2024-03-06T07:46:39;31.00;;;12.80;;
68353;SDS011;55274;43.060;25.618;2024-03-06T07:49:05;39.35;;;14.52;;
68353;SDS011;55274;43.060;25.618;2024-03-06T07:51:31;32.13;;;12.70;;
68353;SDS011;55274;43.060;25.618;2024-03-06T07:53:57;27.63;;;12.60;;
68353;SDS011;55274;43.060;25.618;2024-03-06T07:56:23;38.47;;;14.07;;
68353;SDS011;55274;43.060;25.618;2024-03-06T07:58:53;34.00;;;13.13;;
68353;SDS011;55274;43.060;25.618;2024-03-06T08:01:19;31.92;;;13.88;;
68353;SDS011;55274;43.060;25.618;2024-03-06T08:03:46;39.30;;;15.55;;
68353;SDS011;55274;43.060;25.618;2024-03-06T08:06:12;31.15;;;13.85;;
68353;SDS011;55274;43.060;25.618;2024-03-06T08:08:40;37.97;;;14.88;;
68353;SDS011;55274;43.060;25.618;2024-03-06T08:11:09;32.53;;;14.15;;
68353;SDS011;55274;43.060;25.618;2024-03-06T08:13:36;29.85;;;13.57;;
68353;SDS011;55274;43.060;25.618;2024-03-06T08:16:03;33.80;;;13.77;;
68353;SDS011;55274;43.060;25.618;2024-03-06T08:18:29;31.65;;;14.43;;
68353;SDS011;55274;43.060;25.618;2024-03-06T08:20:56;43.55;;;17.25;;
68353;SDS011;55274;43.060;25.618;2024-03-06T08:23:21;36.28;;;13.90;;
68353;SDS011;55274;43.060;25.618;2024-03-06T08:25:48;35.85;;;13.85;;
68353;SDS011;55274;43.060;25.618;2024-03-06T08:28:14;34.55;;;13.57;;
68353;SDS011;55274;43.060;25.618;2024-03-06T08:30:40;36.40;;;14.35;;
68353;SDS011;55274;43.060;25.618;2024-03-06T08:33:06;34.08;;;13.23;;
68353;SDS011;55274;43.060;25.618;2024-03-06T08:35:32;36.85;;;13.45;;
68353;SDS011;55274;43.060;25.618;2024-03-06T08:37:59;35.17;;;13.35;;
68353;SDS011;55274;43.060;25.618;2024-03-06T08:40:25;37.92;;;13.98;;
68353;SDS011;55274;43.060;25.618;2024-03-06T08:42:52;33.35;;;13.50;;
68353;SDS011;55274;43.060;25.618;2024-03-06T08:45:18;36.10;;;13.57;;
68353;SDS011;55274;43.060;25.618;2024-03-06T08:47:44;40.20;;;14.32;;
68353;SDS011;55274;43.060;25.618;2024-03-06T08:50:11;39.30;;;13.43;;
68353;SDS011;55274;43.060;25.618;2024-03-06T08:52:37;40.80;;;14.13;;
68353;SDS011;55274;43.060;25.618;2024-03-06T08:55:04;41.97;;;16.40;;
68353;SDS011;55274;43.060;25.618;2024-03-06T08:57:31;37.10;;;15.68;;
68353;SDS011;55274;43.060;25.618;2024-03-06T08:59:57;42.15;;;14.77;;
68353;SDS011;55274;43.060;25.618;2024-03-06T09:02:23;50.38;;;16.02;;
68353;SDS011;55274;43.060;25.618;2024-03-06T09:04:51;49.45;;;14.93;;
68353;SDS011;55274;43.060;25.618;2024-03-06T09:07:17;41.97;;;14.35;;
68353;SDS011;55274;43.060;25.618;2024-03-06T09:09:43;35.78;;;13.43;;
68353;SDS011;55274;43.060;25.618;2024-03-06T09:12:10;33.95;;;13.57;;
68353;SDS011;55274;43.060;25.618;2024-03-06T09:14:36;35.03;;;13.82;;
68353;SDS011;55274;43.060;25.618;2024-03-06T09:17:03;36.40;;;13.10;;
68353;SDS011;55274;43.060;25.618;2024-03-06T09:19:30;34.45;;;13.93;;
68353;SDS011;55274;43.060;25.618;2024-03-06T09:21:57;37.63;;;12.30;;
68353;SDS011;55274;43.060;25.618;2024-03-06T09:24:23;36.85;;;13.07;;
68353;SDS011;55274;43.060;25.618;2024-03-06T09:26:50;32.53;;;12.85;;
68353;SDS011;55274;43.060;25.618;2024-03-06T09:29:19;36.83;;;12.88;;
68353;SDS011;55274;43.060;25.618;2024-03-06T09:31:45;34.97;;;12.40;;
68353;SDS011;55274;43.060;25.618;2024-03-06T09:34:13;32.92;;;12.63;;
68353;SDS011;55274;43.060;25.618;2024-03-06T09:36:49;29.95;;;12.10;;
68353;SDS011;55274;43.060;25.618;2024-03-06T09:39:15;27.40;;;11.07;;
68353;SDS011;55274;43.060;25.618;2024-03-06T09:41:46;24.92;;;11.90;;
68353;SDS011;55274;43.060;25.618;2024-03-06T09:44:12;28.83;;;11.70;;
68353;SDS011;55274;43.060;25.618;2024-03-06T09:46:42;30.95;;;12.80;;
68353;SDS011;55274;43.060;25.618;2024-03-06T09:49:09;26.13;;;12.20;;
68353;SDS011;55274;43.060;25.618;2024-03-06T09:51:45;30.40;;;11.95;;
68353;SDS011;55274;43.060;25.618;2024-03-06T09:54:14;28.23;;;12.38;;
68353;SDS011;55274;43.060;25.618;2024-03-06T09:56:49;30.85;;;11.82;;
68353;SDS011;55274;43.060;25.618;2024-03-06T09:59:15;34.30;;;12.68;;
68353;SDS011;55274;43.060;25.618;2024-03-06T10:04:25;27.30;;;12.15;;
68353;SDS011;55274;43.060;25.618;2024-03-06T10:06:59;29.33;;;12.43;;
68353;SDS011;55274;43.060;25.618;2024-03-06T10:09:26;32.63;;;12.10;;
68353;SDS011;55274;43.060;25.618;2024-03-06T10:11:54;32.50;;;13.35;;
68353;SDS011;55274;43.060;25.618;2024-03-06T10:14:22;45.58;;;12.73;;
68353;SDS011;55274;43.060;25.618;2024-03-06T10:16:55;37.67;;;12.52;;
68353;SDS011;55274;43.060;25.618;2024-03-06T10:19:22;28.00;;;12.27;;
68353;SDS011;55274;43.060;25.618;2024-03-06T10:21:52;34.92;;;12.82;;
68353;SDS011;55274;43.060;25.618;2024-03-06T10:24:20;29.95;;;11.95;;
68353;SDS011;55274;43.060;25.618;2024-03-06T10:26:46;24.42;;;10.25;;
68353;SDS011;55274;43.060;25.618;2024-03-06T10:29:16;25.08;;;11.32;;
68353;SDS011;55274;43.060;25.618;2024-03-06T10:31:53;36.22;;;12.07;;
68353;SDS011;55274;43.060;25.618;2024-03-06T10:34:20;28.15;;;10.32;;
68353;SDS011;55274;43.060;25.618;2024-03-06T10:36:48;24.92;;;11.07;;
68353;SDS011;55274;43.060;25.618;2024-03-06T10:39:24;25.60;;;10.35;;
68353;SDS011;55274;43.060;25.618;2024-03-06T10:41:53;26.05;;;10.32;;
68353;SDS011;55274;43.060;25.618;2024-03-06T10:44:29;24.38;;;10.80;;
68353;SDS011;55274;43.060;25.618;2024-03-06T10:46:59;20.60;;;9.60;;
68353;SDS011;55274;43.060;25.618;2024-03-06T10:49:28;23.70;;;10.65;;
68353;SDS011;55274;43.060;25.618;2024-03-06T10:52:04;25.65;;;10.27;;
68353;SDS011;55274;43.060;25.618;2024-03-06T10:54:50;24.25;;;9.25;;
68353;SDS011;55274;43.060;25.618;2024-03-06T10:57:16;24.65;;;10.13;;
68353;SDS011;55274;43.060;25.618;2024-03-06T10:59:44;25.65;;;10.35;;
68353;SDS011;55274;43.060;25.618;2024-03-06T11:02:10;25.35;;;9.77;;
68353;SDS011;55274;43.060;25.618;2024-03-06T11:04:37;21.80;;;10.00;;
68353;SDS011;55274;43.060;25.618;2024-03-06T11:07:05;25.13;;;9.60;;
68353;SDS011;55274;43.060;25.618;2024-03-06T11:09:35;26.33;;;10.23;;
68353;SDS011;55274;43.060;25.618;2024-03-06T11:12:03;26.95;;;12.98;;
68353;SDS011;55274;43.060;25.618;2024-03-06T11:14:32;29.90;;;12.95;;
68353;SDS011;55274;43.060;25.618;2024-03-06T11:17:02;32.30;;;14.10;;
68353;SDS011;55274;43.060;25.618;2024-03-06T11:19:31;36.50;;;13.13;;
68353;SDS011;55274;43.060;25.618;2024-03-06T11:21:58;30.35;;;11.77;;
68353;SDS011;55274;43.060;25.618;2024-03-06T11:24:34;29.20;;;12.57;;
68353;SDS011;55274;43.060;25.618;2024-03-06T11:27:02;32.95;;;12.30;;
68353;SDS011;55274;43.060;25.618;2024-03-06T11:32:57;23.10;;;11.85;;
68353;SDS011;55274;43.060;25.618;2024-03-06T11:35:24;21.67;;;11.23;;
68353;SDS011;55274;43.060;25.618;2024-03-06T11:37:50;30.60;;;12.52;;
68353;SDS011;55274;43.060;25.618;2024-03-06T11:40:22;25.65;;;12.30;;
68353;SDS011;55274;43.060;25.618;2024-03-06T11:42:52;31.75;;;13.48;;
68353;SDS011;55274;43.060;25.618;2024-03-06T11:45:18;28.30;;;12.13;;
68353;SDS011;55274;43.060;25.618;2024-03-06T11:48:02;36.50;;;13.70;;
68353;SDS011;55274;43.060;25.618;2024-03-06T11:50:28;27.15;;;12.15;;
68353;SDS011;55274;43.060;25.618;2024-03-06T11:52:58;29.60;;;12.68;;
68353;SDS011;55274;43.060;25.618;2024-03-06T11:55:24;32.67;;;12.55;;
68353;SDS011;55274;43.060;25.618;2024-03-06T11:57:53;30.17;;;12.23;;
68353;SDS011;55274;43.060;25.618;2024-03-06T12:00:21;29.30;;;11.65;;
68353;SDS011;55274;43.060;25.618;2024-03-06T12:02:48;31.10;;;11.82;;
68353;SDS011;55274;43.060;25.618;2024-03-06T12:05:15;26.25;;;10.75;;
68353;SDS011;55274;43.060;25.618;2024-03-06T12:07:45;31.27;;;11.48;;
68353;SDS011;55274;43.060;25.618;2024-03-06T12:10:15;24.92;;;10.95;;
68353;SDS011;55274;43.060;25.618;2024-03-06T12:12:42;30.38;;;12.40;;
68353;SDS011;55274;43.060;25.618;2024-03-06T12:15:09;28.98;;;11.93;;
68353;SDS011;55274;43.060;25.618;2024-03-06T12:17:46;36.05;;;11.98;;
68353;SDS011;55274;43.060;25.618;2024-03-06T12:20:17;32.00;;;11.85;;
68353;SDS011;55274;43.060;25.618;2024-03-06T12:22:49;27.20;;;11.20;;
68353;SDS011;55274;43.060;25.618;2024-03-06T12:25:23;27.00;;;10.93;;
68353;SDS011;55274;43.060;25.618;2024-03-06T12:27:50;34.90;;;12.57;;
68353;SDS011;55274;43.060;25.618;2024-03-06T12:30:17;29.80;;;10.73;;
68353;SDS011;55274;43.060;25.618;2024-03-06T12:32:44;27.27;;;9.93;;
68353;SDS011;55274;43.060;25.618;2024-03-06T12:35:10;30.50;;;11.77;;
68353;SDS011;55274;43.060;25.618;2024-03-06T12:37:36;29.48;;;11.35;;
68353;SDS011;55274;43.060;25.618;2024-03-06T12:40:02;30.35;;;11.20;;
68353;SDS011;55274;43.060;25.618;2024-03-06T12:42:38;28.55;;;11.55;;
68353;SDS011;55274;43.060;25.618;2024-03-06T12:45:04;29.00;;;10.35;;
68353;SDS011;55274;43.060;25.618;2024-03-06T12:47:31;28.27;;;10.35;;
68353;SDS011;55274;43.060;25.618;2024-03-06T12:49:57;32.63;;;11.27;;
68353;SDS011;55274;43.060;25.618;2024-03-06T12:52:24;28.05;;;11.60;;
68353;SDS011;55274;43.060;25.618;2024-03-06T12:54:49;28.10;;;11.20;;
68353;SDS011;55274;43.060;25.618;2024-03-06T12:57:15;24.38;;;10.30;;
68353;SDS011;55274;43.060;25.618;2024-03-06T12:59:41;28.48;;;10.68;;
68353;SDS011;55274;43.060;25.618;2024-03-06T13:02:07;23.73;;;9.93;;
68353;SDS011;55274;43.060;25.618;2024-03-06T13:04:32;25.75;;;10.52;;
68353;SDS011;55274;43.060;25.618;2024-03-06T13:06:58;24.55;;;9.98;;
68353;SDS011;55274;43.060;25.618;2024-03-06T13:09:24;25.45;;;9.32;;
68353;SDS011;55274;43.060;25.618;2024-03-06T13:11:50;27.30;;;11.30;;
68353;SDS011;55274;43.060;25.618;2024-03-06T13:14:16;26.83;;;10.18;;
68353;SDS011;55274;43.060;25.618;2024-03-06T13:16:41;34.13;;;11.70;;
68353;SDS011;55274;43.060;25.618;2024-03-06T13:19:07;30.00;;;10.88;;
68353;SDS011;55274;43.060;25.618;2024-03-06T13:21:33;24.88;;;10.13;;
68353;SDS011;55274;43.060;25.618;2024-03-06T13:23:58;27.35;;;10.68;;
68353;SDS011;55274;43.060;25.618;2024-03-06T13:26:24;27.00;;;10.70;;
68353;SDS011;55274;43.060;25.618;2024-03-06T13:28:50;28.42;;;10.50;;
68353;SDS011;55274;43.060;25.618;2024-03-06T13:31:16;23.80;;;9.95;;
68353;SDS011;55274;43.060;25.618;2024-03-06T13:33:42;24.10;;;10.88;;
68353;SDS011;55274;43.060;25.618;2024-03-06T13:36:08;22.45;;;9.15;;
68353;SDS011;55274;43.060;25.618;2024-03-06T13:38:34;37.10;;;11.00;;
68353;SDS011;55274;43.060;25.618;2024-03-06T13:41:00;29.38;;;11.27;;
68353;SDS011;55274;43.060;25.618;2024-03-06T13:43:28;33.65;;;11.70;;
68353;SDS011;55274;43.060;25.618;2024-03-06T13:45:54;32.03;;;11.18;;
68353;SDS011;55274;43.060;25.618;2024-03-06T13:48:20;28.17;;;10.55;;
68353;SDS011;55274;43.060;25.618;2024-03-06T13:50:47;24.88;;;9.90;;
68353;SDS011;55274;43.060;25.618;2024-03-06T13:53:13;30.05;;;11.18;;
68353;SDS011;55274;43.060;25.618;2024-03-06T13:55:39;22.13;;;8.93;;
68353;SDS011;55274;43.060;25.618;2024-03-06T13:58:05;24.33;;;9.77;;
68353;SDS011;55274;43.060;25.618;2024-03-06T14:00:32;27.13;;;10.20;;
68353;SDS011;55274;43.060;25.618;2024-03-06T14:02:59;25.90;;;9.35;;
68353;SDS011;55274;43.060;25.618;2024-03-06T14:05:25;22.75;;;10.63;;
68353;SDS011;55274;43.060;25.618;2024-03-06T14:07:51;21.02;;;9.60;;
68353;SDS011;55274;43.060;25.618;2024-03-06T14:10:17;22.88;;;10.32;;
68353;SDS011;55274;43.060;25.618;2024-03-06T14:12:45;23.60;;;9.52;;
68353;SDS011;55274;43.060;25.618;2024-03-06T14:15:11;22.40;;;9.18;;